sensor_id;sensor_type;location;lat;lon;timestamp;P1;durP1;ratioP1;P2;durP2;ratioP2
13075;SDS011;6604;52.484;13.330;2023-05-02T07:47:53;8.23;;;5.10;;
13075;SDS011;6604;52.484;13.330;2023-05-02T07:50:20;8.70;;;4.97;;
13075;SDS011;6604;52.484;13.330;2023-05-02T07:52:46;8.23;;;5.20;;
13075;SDS011;6604;52.484;13.330;2023-05-02T07:55:13;8.77;;;5.10;;
13075;SDS011;6604;52.484;13.330;2023-05-02T07:57:40;9.53;;;5.47;;
13075;SDS011;6604;52.484;13.330;2023-05-02T08:00:07;8.20;;;5.10;;
13075;SDS011;6604;52.484;13.330;2023-05-02T08:02:34;7.03;;;5.03;;
13075;SDS011;6604;52.484;13.330;2023-05-02T08:05:02;7.27;;;4.90;;
13075;SDS011;6604;52.484;13.330;2023-05-02T08:07:30;8.00;;;5.10;;
13075;SDS011;6604;52.484;13.330;2023-05-02T08:09:57;7.60;;;5.40;;
13075;SDS011;6604;52.484;13.330;2023-05-02T08:12:23;8.23;;;5.00;;
13075;SDS011;6604;52.484;13.330;2023-05-02T08:14:50;6.80;;;5.47;;
13075;SDS011;6604;52.484;13.330;2023-05-02T08:17:16;8.00;;;5.30;;
13075;SDS011;6604;52.484;13.330;2023-05-02T08:19:43;8.57;;;5.03;;
13075;SDS011;6604;52.484;13.330;2023-05-02T08:22:11;10.30;;;6.27;;
13075;SDS011;6604;52.484;13.330;2023-05-02T08:24:37;8.40;;;5.40;;
13075;SDS011;6604;52.484;13.330;2023-05-02T08:27:04;9.90;;;5.60;;
13075;SDS011;6604;52.484;13.330;2023-05-02T08:29:31;8.77;;;5.57;;
13075;SDS011;6604;52.484;13.330;2023-05-02T08:31:57;7.27;;;5.50;;
13075;SDS011;6604;52.484;13.330;2023-05-02T08:34:24;7.33;;;5.23;;
13075;SDS011;6604;52.484;13.330;2023-05-02T08:36:51;9.80;;;5.03;;
13075;SDS011;6604;52.484;13.330;2023-05-02T08:39:19;8.30;;;4.40;;
13075;SDS011;6604;52.484;13.330;2023-05-02T08:41:45;8.63;;;4.30;;
13075;SDS011;6604;52.484;13.330;2023-05-02T08:44:11;6.67;;;4.17;;
13075;SDS011;6604;52.484;13.330;2023-05-02T08:46:39;6.60;;;3.67;;
13075;SDS011;6604;52.484;13.330;2023-05-02T08:49:06;4.70;;;3.67;;
13075;SDS011;6604;52.484;13.330;2023-05-02T08:51:33;6.37;;;3.33;;
13075;SDS011;6604;52.484;13.330;2023-05-02T08:54:00;5.90;;;3.37;;
13075;SDS011;6604;52.484;13.330;2023-05-02T08:56:28;5.23;;;3.50;;
13075;SDS011;6604;52.484;13.330;2023-05-02T08:58:55;4.97;;;3.53;;
13075;SDS011;6604;52.484;13.330;2023-05-02T09:01:22;4.87;;;3.10;;
13075;SDS011;6604;52.484;13.330;2023-05-02T09:03:49;6.17;;;3.90;;
13075;SDS011;6604;52.484;13.330;2023-05-02T09:06:16;6.53;;;4.27;;
13075;SDS011;6604;52.484;13.330;2023-05-02T09:08:44;7.20;;;4.03;;
13075;SDS011;6604;52.484;13.330;2023-05-02T09:11:13;5.27;;;3.60;;
13075;SDS011;6604;52.484;13.330;2023-05-02T09:13:42;4.87;;;3.70;;
13075;SDS011;6604;52.484;13.330;2023-05-02T09:16:09;5.13;;;3.60;;
13075;SDS011;6604;52.484;13.330;2023-05-02T09:18:37;6.93;;;3.60;;
13075;SDS011;6604;52.484;13.330;2023-05-02T09:21:04;5.00;;;3.20;;
13075;SDS011;6604;52.484;13.330;2023-05-02T09:23:40;3.93;;;2.80;;
13075;SDS011;6604;52.484;13.330;2023-05-02T09:26:10;4.73;;;3.10;;
13075;SDS011;6604;52.484;13.330;2023-05-02T09:28:37;4.10;;;3.17;;
13075;SDS011;6604;52.484;13.330;2023-05-02T09:31:06;8.03;;;3.80;;
13075;SDS011;6604;52.484;13.330;2023-05-02T09:33:33;6.20;;;3.73;;
13075;SDS011;6604;52.484;13.330;2023-05-02T09:36:00;4.70;;;3.33;;
13075;SDS011;6604;52.484;13.330;2023-05-02T09:38:26;4.63;;;3.33;;
13075;SDS011;6604;52.484;13.330;2023-05-02T09:40:53;5.47;;;3.60;;
13075;SDS011;6604;52.484;13.330;2023-05-02T09:43:20;6.53;;;3.13;;
13075;SDS011;6604;52.484;13.330;2023-05-02T09:45:55;6.70;;;3.47;;
13075;SDS011;6604;52.484;13.330;2023-05-02T09:48:23;3.93;;;3.33;;
13075;SDS011;6604;52.484;13.330;2023-05-02T09:50:49;5.17;;;4.10;;
13075;SDS011;6604;52.484;13.330;2023-05-02T09:53:16;4.83;;;3.90;;
13075;SDS011;6604;52.484;13.330;2023-05-02T09:55:42;6.20;;;3.17;;
13075;SDS011;6604;52.484;13.330;2023-05-02T09:58:19;4.27;;;3.43;;
13075;SDS011;6604;52.484;13.330;2023-05-02T10:00:45;4.90;;;3.87;;
13075;SDS011;6604;52.484;13.330;2023-05-02T10:03:14;5.57;;;3.87;;
13075;SDS011;6604;52.484;13.330;2023-05-02T10:05:43;5.03;;;3.93;;
13075;SDS011;6604;52.484;13.330;2023-05-02T10:08:09;4.53;;;3.67;;
13075;SDS011;6604;52.484;13.330;2023-05-02T10:10:37;4.80;;;3.80;;
13075;SDS011;6604;52.484;13.330;2023-05-02T10:13:05;6.23;;;3.70;;
13075;SDS011;6604;52.484;13.330;2023-05-02T10:15:32;5.80;;;3.13;;
13075;SDS011;6604;52.484;13.330;2023-05-02T10:17:58;4.03;;;3.07;;
13075;SDS011;6604;52.484;13.330;2023-05-02T10:20:28;3.73;;;3.33;;
13075;SDS011;6604;52.484;13.330;2023-05-02T10:22:57;3.33;;;2.97;;
13075;SDS011;6604;52.484;13.330;2023-05-02T10:25:24;3.67;;;3.10;;
13075;SDS011;6604;52.484;13.330;2023-05-02T10:27:51;4.30;;;3.60;;
13075;SDS011;6604;52.484;13.330;2023-05-02T10:30:18;5.33;;;3.83;;
13075;SDS011;6604;52.484;13.330;2023-05-02T10:32:45;5.20;;;3.33;;
13075;SDS011;6604;52.484;13.330;2023-05-02T10:35:13;3.80;;;3.00;;
13075;SDS011;6604;52.484;13.330;2023-05-02T10:37:41;4.77;;;3.20;;
13075;SDS011;6604;52.484;13.330;2023-05-02T10:40:10;4.67;;;3.17;;
13075;SDS011;6604;52.484;13.330;2023-05-02T10:42:37;3.87;;;2.70;;
13075;SDS011;6604;52.484;13.330;2023-05-02T10:45:08;4.33;;;3.00;;
13075;SDS011;6604;52.484;13.330;2023-05-02T10:47:35;3.93;;;3.17;;
13075;SDS011;6604;52.484;13.330;2023-05-02T10:50:02;5.60;;;2.77;;
13075;SDS011;6604;52.484;13.330;2023-05-02T10:52:29;3.43;;;2.90;;
13075;SDS011;6604;52.484;13.330;2023-05-02T11:00:33;6.53;;;3.67;;
13075;SDS011;6604;52.484;13.330;2023-05-02T11:03:00;5.93;;;3.60;;
13075;SDS011;6604;52.484;13.330;2023-05-02T11:05:27;6.67;;;4.20;;
13075;SDS011;6604;52.484;13.330;2023-05-02T11:10:35;6.13;;;4.50;;
13075;SDS011;6604;52.484;13.330;2023-05-02T11:13:02;8.27;;;4.30;;
13075;SDS011;6604;52.484;13.330;2023-05-02T11:18:17;9.60;;;4.20;;
13075;SDS011;6604;52.484;13.330;2023-05-02T11:20:44;9.00;;;4.33;;
13075;SDS011;6604;52.484;13.330;2023-05-02T11:23:20;11.37;;;4.53;;
13075;SDS011;6604;52.484;13.330;2023-05-02T11:25:50;10.07;;;4.17;;
13075;SDS011;6604;52.484;13.330;2023-05-02T11:31:01;11.00;;;3.53;;
13075;SDS011;6604;52.484;13.330;2023-05-02T11:33:29;5.97;;;4.10;;
13075;SDS011;6604;52.484;13.330;2023-05-02T11:35:57;7.03;;;3.67;;
13075;SDS011;6604;52.484;13.330;2023-05-02T11:38:24;4.93;;;3.20;;
13075;SDS011;6604;52.484;13.330;2023-05-02T11:40:54;7.33;;;3.50;;
13075;SDS011;6604;52.484;13.330;2023-05-02T11:43:21;6.70;;;3.50;;
13075;SDS011;6604;52.484;13.330;2023-05-02T11:45:49;10.63;;;3.67;;
13075;SDS011;6604;52.484;13.330;2023-05-02T11:48:16;8.17;;;3.57;;
13075;SDS011;6604;52.484;13.330;2023-05-02T11:50:45;6.53;;;3.70;;
13075;SDS011;6604;52.484;13.330;2023-05-02T11:53:12;6.60;;;3.60;;
13075;SDS011;6604;52.484;13.330;2023-05-02T11:55:45;6.33;;;3.50;;
13075;SDS011;6604;52.484;13.330;2023-05-02T11:58:12;7.47;;;3.60;;
13075;SDS011;6604;52.484;13.330;2023-05-02T12:00:39;6.97;;;3.37;;
13075;SDS011;6604;52.484;13.330;2023-05-02T12:03:06;6.67;;;2.90;;
13075;SDS011;6604;52.484;13.330;2023-05-02T12:05:32;9.63;;;3.10;;
13075;SDS011;6604;52.484;13.330;2023-05-02T12:08:00;4.03;;;2.53;;
13075;SDS011;6604;52.484;13.330;2023-05-02T12:10:36;6.40;;;3.17;;
13075;SDS011;6604;52.484;13.330;2023-05-02T12:13:03;8.57;;;3.27;;
13075;SDS011;6604;52.484;13.330;2023-05-02T12:15:30;6.53;;;2.80;;
13075;SDS011;6604;52.484;13.330;2023-05-02T12:17:57;8.57;;;3.03;;
13075;SDS011;6604;52.484;13.330;2023-05-02T12:20:23;7.30;;;3.10;;
13075;SDS011;6604;52.484;13.330;2023-05-02T12:22:50;6.90;;;3.40;;
13075;SDS011;6604;52.484;13.330;2023-05-02T12:25:18;8.37;;;3.10;;
13075;SDS011;6604;52.484;13.330;2023-05-02T12:27:57;6.67;;;2.80;;
13075;SDS011;6604;52.484;13.330;2023-05-02T12:30:27;7.10;;;3.00;;
13075;SDS011;6604;52.484;13.330;2023-05-02T12:32:57;4.87;;;2.60;;
13075;SDS011;6604;52.484;13.330;2023-05-02T12:35:24;5.80;;;3.03;;
13075;SDS011;6604;52.484;13.330;2023-05-02T12:37:51;7.00;;;3.10;;
13075;SDS011;6604;52.484;13.330;2023-05-02T12:40:19;7.93;;;3.20;;
13075;SDS011;6604;52.484;13.330;2023-05-02T12:42:56;10.60;;;3.47;;
13075;SDS011;6604;52.484;13.330;2023-05-02T12:45:23;7.83;;;3.33;;
13075;SDS011;6604;52.484;13.330;2023-05-02T12:47:53;7.83;;;3.70;;
13075;SDS011;6604;52.484;13.330;2023-05-02T12:50:19;7.47;;;3.47;;
13075;SDS011;6604;52.484;13.330;2023-05-02T12:52:46;7.63;;;3.33;;
13075;SDS011;6604;52.484;13.330;2023-05-02T12:55:16;11.53;;;3.80;;
13075;SDS011;6604;52.484;13.330;2023-05-02T12:57:44;9.70;;;3.50;;
13075;SDS011;6604;52.484;13.330;2023-05-02T13:00:11;9.70;;;3.47;;
13075;SDS011;6604;52.484;13.330;2023-05-02T13:02:38;9.50;;;3.13;;
13075;SDS011;6604;52.484;13.330;2023-05-02T13:05:12;4.30;;;2.80;;
13075;SDS011;6604;52.484;13.330;2023-05-02T13:07:39;7.47;;;3.53;;
13075;SDS011;6604;52.484;13.330;2023-05-02T13:10:06;9.70;;;4.23;;
13075;SDS011;6604;52.484;13.330;2023-05-02T13:12:33;8.63;;;3.63;;
13075;SDS011;6604;52.484;13.330;2023-05-02T13:15:03;10.20;;;3.60;;
13075;SDS011;6604;52.484;13.330;2023-05-02T13:17:29;9.50;;;3.73;;
13075;SDS011;6604;52.484;13.330;2023-05-02T13:19:56;9.33;;;3.40;;
13075;SDS011;6604;52.484;13.330;2023-05-02T13:22:22;10.33;;;3.50;;
13075;SDS011;6604;52.484;13.330;2023-05-02T13:24:49;7.43;;;2.90;;
13075;SDS011;6604;52.484;13.330;2023-05-02T13:27:15;6.93;;;2.83;;
13075;SDS011;6604;52.484;13.330;2023-05-02T13:29:42;8.27;;;3.03;;
13075;SDS011;6604;52.484;13.330;2023-05-02T13:32:10;8.33;;;3.40;;
13075;SDS011;6604;52.484;13.330;2023-05-02T13:34:37;6.27;;;2.97;;
13075;SDS011;6604;52.484;13.330;2023-05-02T13:37:03;10.57;;;2.93;;
13075;SDS011;6604;52.484;13.330;2023-05-02T13:39:29;8.17;;;3.07;;
13075;SDS011;6604;52.484;13.330;2023-05-02T13:41:56;7.60;;;3.47;;
13075;SDS011;6604;52.484;13.330;2023-05-02T13:44:23;7.33;;;3.10;;
13075;SDS011;6604;52.484;13.330;2023-05-02T13:46:49;11.33;;;3.60;;
13075;SDS011;6604;52.484;13.330;2023-05-02T13:49:17;7.57;;;3.60;;
13075;SDS011;6604;52.484;13.330;2023-05-02T13:51:43;10.90;;;3.27;;
13075;SDS011;6604;52.484;13.330;2023-05-02T13:54:10;8.10;;;3.40;;
13075;SDS011;6604;52.484;13.330;2023-05-02T13:56:37;7.90;;;3.53;;
13075;SDS011;6604;52.484;13.330;2023-05-02T13:59:03;10.87;;;3.30;;
13075;SDS011;6604;52.484;13.330;2023-05-02T14:01:30;6.07;;;2.97;;
13075;SDS011;6604;52.484;13.330;2023-05-02T14:03:57;9.53;;;3.93;;
13075;SDS011;6604;52.484;13.330;2023-05-02T14:06:25;4.47;;;3.27;;
13075;SDS011;6604;52.484;13.330;2023-05-02T14:08:51;7.47;;;3.50;;
13075;SDS011;6604;52.484;13.330;2023-05-02T14:11:18;6.57;;;3.03;;
13075;SDS011;6604;52.484;13.330;2023-05-02T14:13:44;8.00;;;3.70;;
13075;SDS011;6604;52.484;13.330;2023-05-02T14:16:11;8.10;;;3.20;;
13075;SDS011;6604;52.484;13.330;2023-05-02T14:18:37;6.63;;;3.20;;
13075;SDS011;6604;52.484;13.330;2023-05-02T14:21:04;9.80;;;3.80;;
13075;SDS011;6604;52.484;13.330;2023-05-02T14:23:32;7.27;;;3.40;;
13075;SDS011;6604;52.484;13.330;2023-05-02T14:25:59;6.37;;;3.20;;
13075;SDS011;6604;52.484;13.330;2023-05-02T14:28:26;4.63;;;2.83;;
13075;SDS011;6604;52.484;13.330;2023-05-02T14:30:52;6.40;;;3.30;;
13075;SDS011;6604;52.484;13.330;2023-05-02T14:33:19;6.50;;;3.00;;
13075;SDS011;6604;52.484;13.330;2023-05-02T14:35:45;8.63;;;3.70;;
13075;SDS011;6604;52.484;13.330;2023-05-02T14:38:12;7.20;;;3.70;;
13075;SDS011;6604;52.484;13.330;2023-05-02T14:40:39;7.97;;;3.33;;
13075;SDS011;6604;52.484;13.330;2023-05-02T14:43:06;8.57;;;3.30;;
13075;SDS011;6604;52.484;13.330;2023-05-02T14:45:32;6.43;;;3.00;;
13075;SDS011;6604;52.484;13.330;2023-05-02T14:47:59;10.50;;;3.43;;
13075;SDS011;6604;52.484;13.330;2023-05-02T14:50:25;3.83;;;2.90;;
13075;SDS011;6604;52.484;13.330;2023-05-02T14:52:52;9.77;;;3.00;;
13075;SDS011;6604;52.484;13.330;2023-05-02T14:55:18;6.80;;;2.87;;
13075;SDS011;6604;52.484;13.330;2023-05-02T14:57:46;6.50;;;2.60;;
13075;SDS011;6604;52.484;13.330;2023-05-02T15:00:13;7.83;;;3.00;;
13075;SDS011;6604;52.484;13.330;2023-05-02T15:02:40;8.73;;;2.87;;
13075;SDS011;6604;52.484;13.330;2023-05-02T15:05:06;6.00;;;2.77;;
13075;SDS011;6604;52.484;13.330;2023-05-02T15:07:36;10.17;;;3.03;;
13075;SDS011;6604;52.484;13.330;2023-05-02T15:10:02;6.77;;;2.87;;
13075;SDS011;6604;52.484;13.330;2023-05-02T15:12:29;7.10;;;3.53;;
13075;SDS011;6604;52.484;13.330;2023-05-02T15:14:57;6.10;;;2.50;;
13075;SDS011;6604;52.484;13.330;2023-05-02T15:17:23;7.93;;;2.87;;
13075;SDS011;6604;52.484;13.330;2023-05-02T15:19:50;8.37;;;2.87;;
13075;SDS011;6604;52.484;13.330;2023-05-02T15:22:16;11.23;;;3.40;;
13075;SDS011;6604;52.484;13.330;2023-05-02T15:24:43;8.53;;;3.87;;
13075;SDS011;6604;52.484;13.330;2023-05-02T15:27:09;5.77;;;2.50;;
13075;SDS011;6604;52.484;13.330;2023-05-02T15:29:36;5.20;;;2.50;;
13075;SDS011;6604;52.484;13.330;2023-05-02T15:32:04;9.40;;;3.00;;
13075;SDS011;6604;52.484;13.330;2023-05-02T15:34:31;4.33;;;2.80;;
13075;SDS011;6604;52.484;13.330;2023-05-02T15:36:58;7.30;;;2.70;;
13075;SDS011;6604;52.484;13.330;2023-05-02T15:39:24;8.70;;;2.90;;
13075;SDS011;6604;52.484;13.330;2023-05-02T15:41:52;5.10;;;2.70;;
13075;SDS011;6604;52.484;13.330;2023-05-02T15:44:18;8.90;;;3.33;;
13075;SDS011;6604;52.484;13.330;2023-05-02T15:46:45;9.27;;;3.03;;
13075;SDS011;6604;52.484;13.330;2023-05-02T15:49:13;8.13;;;2.50;;
13075;SDS011;6604;52.484;13.330;2023-05-02T15:51:39;11.33;;;3.00;;
13075;SDS011;6604;52.484;13.330;2023-05-02T15:54:06;3.67;;;2.50;;
13075;SDS011;6604;52.484;13.330;2023-05-02T15:56:33;5.47;;;2.90;;
13075;SDS011;6604;52.484;13.330;2023-05-02T15:58:59;5.67;;;3.20;;
13075;SDS011;6604;52.484;13.330;2023-05-02T16:01:26;3.77;;;2.40;;
13075;SDS011;6604;52.484;13.330;2023-05-02T16:03:52;8.10;;;3.03;;
13075;SDS011;6604;52.484;13.330;2023-05-02T16:06:20;6.97;;;2.67;;
13075;SDS011;6604;52.484;13.330;2023-05-02T16:08:46;3.93;;;2.77;;
13075;SDS011;6604;52.484;13.330;2023-05-02T16:11:13;3.30;;;2.43;;
13075;SDS011;6604;52.484;13.330;2023-05-02T16:13:39;6.17;;;3.07;;
13075;SDS011;6604;52.484;13.330;2023-05-02T16:16:06;6.83;;;2.80;;
13075;SDS011;6604;52.484;13.330;2023-05-02T16:18:33;6.30;;;2.20;;
13075;SDS011;6604;52.484;13.330;2023-05-02T16:20:59;4.07;;;2.40;;
13075;SDS011;6604;52.484;13.330;2023-05-02T16:23:28;4.30;;;2.27;;
13075;SDS011;6604;52.484;13.330;2023-05-02T16:25:57;4.40;;;2.60;;
13075;SDS011;6604;52.484;13.330;2023-05-02T16:28:24;5.77;;;2.67;;
13075;SDS011;6604;52.484;13.330;2023-05-02T16:30:50;8.97;;;2.47;;
13075;SDS011;6604;52.484;13.330;2023-05-02T16:33:17;4.50;;;2.30;;
13075;SDS011;6604;52.484;13.330;2023-05-02T16:35:43;6.20;;;2.70;;
13075;SDS011;6604;52.484;13.330;2023-05-02T16:38:10;5.93;;;3.10;;
13075;SDS011;6604;52.484;13.330;2023-05-02T16:40:38;8.90;;;2.70;;
13075;SDS011;6604;52.484;13.330;2023-05-02T16:43:05;9.37;;;2.77;;
13075;SDS011;6604;52.484;13.330;2023-05-02T16:45:32;6.03;;;2.77;;
13075;SDS011;6604;52.484;13.330;2023-05-02T16:47:59;5.63;;;2.30;;
13075;SDS011;6604;52.484;13.330;2023-05-02T16:50:26;7.77;;;2.73;;
13075;SDS011;6604;52.484;13.330;2023-05-02T16:52:52;6.73;;;2.70;;
13075;SDS011;6604;52.484;13.330;2023-05-02T16:55:19;5.53;;;2.40;;
13075;SDS011;6604;52.484;13.330;2023-05-02T16:57:47;3.50;;;2.50;;
13075;SDS011;6604;52.484;13.330;2023-05-02T17:00:15;7.77;;;2.70;;
13075;SDS011;6604;52.484;13.330;2023-05-02T17:02:42;4.43;;;2.60;;
13075;SDS011;6604;52.484;13.330;2023-05-02T17:05:08;4.07;;;2.43;;
13075;SDS011;6604;52.484;13.330;2023-05-02T17:07:35;5.30;;;2.97;;
13075;SDS011;6604;52.484;13.330;2023-05-02T17:10:02;11.17;;;4.50;;
13075;SDS011;6604;52.484;13.330;2023-05-02T17:12:29;5.20;;;3.40;;
13075;SDS011;6604;52.484;13.330;2023-05-02T17:14:57;7.77;;;2.70;;
13075;SDS011;6604;52.484;13.330;2023-05-02T17:17:23;5.67;;;2.50;;
13075;SDS011;6604;52.484;13.330;2023-05-02T17:19:50;8.83;;;4.67;;
13075;SDS011;6604;52.484;13.330;2023-05-02T17:22:17;15.10;;;8.30;;
13075;SDS011;6604;52.484;13.330;2023-05-02T17:24:44;5.83;;;3.73;;
13075;SDS011;6604;52.484;13.330;2023-05-02T17:27:12;5.10;;;2.63;;
13075;SDS011;6604;52.484;13.330;2023-05-02T17:29:39;5.67;;;2.93;;
13075;SDS011;6604;52.484;13.330;2023-05-02T17:32:07;7.73;;;2.60;;
13075;SDS011;6604;52.484;13.330;2023-05-02T17:34:35;9.57;;;2.50;;
13075;SDS011;6604;52.484;13.330;2023-05-02T17:37:01;7.13;;;2.67;;
13075;SDS011;6604;52.484;13.330;2023-05-02T17:39:28;6.70;;;3.07;;
13075;SDS011;6604;52.484;13.330;2023-05-02T17:41:54;7.03;;;2.70;;
13075;SDS011;6604;52.484;13.330;2023-05-02T17:44:21;6.10;;;2.57;;
13075;SDS011;6604;52.484;13.330;2023-05-02T17:46:47;4.13;;;2.60;;
13075;SDS011;6604;52.484;13.330;2023-05-02T17:49:15;5.07;;;3.00;;
13075;SDS011;6604;52.484;13.330;2023-05-02T17:51:42;4.70;;;2.30;;
13075;SDS011;6604;52.484;13.330;2023-05-02T17:54:08;5.10;;;2.67;;
13075;SDS011;6604;52.484;13.330;2023-05-02T17:56:35;5.60;;;2.30;;
13075;SDS011;6604;52.484;13.330;2023-05-02T17:59:02;5.77;;;2.53;;
13075;SDS011;6604;52.484;13.330;2023-05-02T18:01:29;5.27;;;2.67;;
13075;SDS011;6604;52.484;13.330;2023-05-02T18:03:56;6.20;;;2.73;;
13075;SDS011;6604;52.484;13.330;2023-05-02T18:06:25;3.90;;;2.10;;
13075;SDS011;6604;52.484;13.330;2023-05-02T18:08:52;6.07;;;2.50;;
13075;SDS011;6604;52.484;13.330;2023-05-02T18:11:18;4.90;;;2.33;;
13075;SDS011;6604;52.484;13.330;2023-05-02T18:13:46;4.67;;;2.23;;
13075;SDS011;6604;52.484;13.330;2023-05-02T18:16:13;4.43;;;2.17;;
13075;SDS011;6604;52.484;13.330;2023-05-02T18:18:40;3.70;;;2.20;;
13075;SDS011;6604;52.484;13.330;2023-05-02T18:21:06;8.10;;;2.30;;
13075;SDS011;6604;52.484;13.330;2023-05-02T18:23:34;4.37;;;2.40;;
13075;SDS011;6604;52.484;13.330;2023-05-02T18:26:01;5.70;;;2.37;;
13075;SDS011;6604;52.484;13.330;2023-05-02T18:28:28;7.17;;;2.33;;
13075;SDS011;6604;52.484;13.330;2023-05-02T18:30:54;6.33;;;2.20;;
13075;SDS011;6604;52.484;13.330;2023-05-02T18:33:21;4.67;;;2.20;;
13075;SDS011;6604;52.484;13.330;2023-05-02T18:35:47;6.47;;;2.43;;
13075;SDS011;6604;52.484;13.330;2023-05-02T18:38:14;3.97;;;1.97;;
13075;SDS011;6604;52.484;13.330;2023-05-02T18:40:42;7.33;;;2.50;;
13075;SDS011;6604;52.484;13.330;2023-05-02T18:43:09;4.80;;;2.30;;
13075;SDS011;6604;52.484;13.330;2023-05-02T18:45:35;6.73;;;2.30;;
13075;SDS011;6604;52.484;13.330;2023-05-02T18:48:02;6.47;;;2.40;;
13075;SDS011;6604;52.484;13.330;2023-05-02T18:50:29;3.43;;;2.70;;
13075;SDS011;6604;52.484;13.330;2023-05-02T18:52:56;5.13;;;2.63;;
13075;SDS011;6604;52.484;13.330;2023-05-02T18:55:22;4.97;;;2.40;;
13075;SDS011;6604;52.484;13.330;2023-05-02T18:57:50;7.07;;;2.13;;
13075;SDS011;6604;52.484;13.330;2023-05-02T19:00:17;5.87;;;2.30;;
13075;SDS011;6604;52.484;13.330;2023-05-02T19:02:44;5.40;;;2.77;;
13075;SDS011;6604;52.484;13.330;2023-05-02T19:05:10;7.77;;;2.20;;
13075;SDS011;6604;52.484;13.330;2023-05-02T19:07:37;13.77;;;6.33;;
13075;SDS011;6604;52.484;13.330;2023-05-02T19:10:04;6.07;;;2.83;;
13075;SDS011;6604;52.484;13.330;2023-05-02T19:12:30;3.00;;;2.07;;
13075;SDS011;6604;52.484;13.330;2023-05-02T19:14:58;4.43;;;2.40;;
13075;SDS011;6604;52.484;13.330;2023-05-02T19:17:25;5.53;;;2.10;;
13075;SDS011;6604;52.484;13.330;2023-05-02T19:19:51;4.50;;;2.30;;
13075;SDS011;6604;52.484;13.330;2023-05-02T19:22:18;6.17;;;2.33;;
13075;SDS011;6604;52.484;13.330;2023-05-02T19:24:46;8.33;;;3.33;;
13075;SDS011;6604;52.484;13.330;2023-05-02T19:27:12;6.57;;;3.00;;
13075;SDS011;6604;52.484;13.330;2023-05-02T19:29:39;4.60;;;2.57;;
13075;SDS011;6604;52.484;13.330;2023-05-02T19:32:07;3.93;;;2.00;;
13075;SDS011;6604;52.484;13.330;2023-05-02T19:34:33;4.57;;;2.03;;
13075;SDS011;6604;52.484;13.330;2023-05-02T19:37:00;2.07;;;1.73;;
13075;SDS011;6604;52.484;13.330;2023-05-02T19:39:28;3.60;;;1.80;;
13075;SDS011;6604;52.484;13.330;2023-05-02T19:41:55;5.80;;;2.17;;
13075;SDS011;6604;52.484;13.330;2023-05-02T19:44:22;6.70;;;2.33;;
13075;SDS011;6604;52.484;13.330;2023-05-02T19:46:49;3.80;;;1.90;;
13075;SDS011;6604;52.484;13.330;2023-05-02T19:49:17;7.93;;;2.20;;
13075;SDS011;6604;52.484;13.330;2023-05-02T19:51:43;5.07;;;2.00;;
13075;SDS011;6604;52.484;13.330;2023-05-02T19:54:10;4.57;;;2.47;;
13075;SDS011;6604;52.484;13.330;2023-05-02T19:56:36;2.77;;;2.03;;
13075;SDS011;6604;52.484;13.330;2023-05-02T19:59:03;5.33;;;2.17;;
13075;SDS011;6604;52.484;13.330;2023-05-02T20:01:29;2.90;;;1.77;;
13075;SDS011;6604;52.484;13.330;2023-05-02T20:03:56;2.43;;;2.10;;
13075;SDS011;6604;52.484;13.330;2023-05-02T20:06:24;16.37;;;9.03;;
13075;SDS011;6604;52.484;13.330;2023-05-02T20:08:52;9.93;;;5.13;;
13075;SDS011;6604;52.484;13.330;2023-05-02T20:11:18;5.53;;;2.07;;
13075;SDS011;6604;52.484;13.330;2023-05-02T20:13:45;7.33;;;2.47;;
13075;SDS011;6604;52.484;13.330;2023-05-02T20:16:12;3.47;;;2.00;;
13075;SDS011;6604;52.484;13.330;2023-05-02T20:18:38;4.30;;;2.40;;
13075;SDS011;6604;52.484;13.330;2023-05-02T20:21:05;4.67;;;2.13;;
13075;SDS011;6604;52.484;13.330;2023-05-02T20:23:32;4.63;;;2.33;;
13075;SDS011;6604;52.484;13.330;2023-05-02T20:25:59;6.07;;;2.03;;
13075;SDS011;6604;52.484;13.330;2023-05-02T20:28:28;2.30;;;2.10;;
13075;SDS011;6604;52.484;13.330;2023-05-02T20:30:55;2.47;;;2.13;;
13075;SDS011;6604;52.484;13.330;2023-05-02T20:33:21;3.53;;;2.13;;
13075;SDS011;6604;52.484;13.330;2023-05-02T20:35:51;12.33;;;7.77;;
13075;SDS011;6604;52.484;13.330;2023-05-02T20:38:18;6.77;;;3.73;;
13075;SDS011;6604;52.484;13.330;2023-05-02T20:40:46;3.87;;;2.30;;
13075;SDS011;6604;52.484;13.330;2023-05-02T20:43:12;3.20;;;1.87;;
13075;SDS011;6604;52.484;13.330;2023-05-02T20:45:42;2.97;;;2.10;;
13075;SDS011;6604;52.484;13.330;2023-05-02T20:48:09;3.73;;;1.93;;
13075;SDS011;6604;52.484;13.330;2023-05-02T20:50:35;6.50;;;2.90;;
13075;SDS011;6604;52.484;13.330;2023-05-02T20:53:02;4.80;;;2.47;;
13075;SDS011;6604;52.484;13.330;2023-05-02T20:55:29;5.27;;;2.30;;
13075;SDS011;6604;52.484;13.330;2023-05-02T20:57:57;5.63;;;2.23;;
13075;SDS011;6604;52.484;13.330;2023-05-02T21:00:24;4.90;;;3.03;;
13075;SDS011;6604;52.484;13.330;2023-05-02T21:02:51;5.90;;;3.60;;
13075;SDS011;6604;52.484;13.330;2023-05-02T21:05:18;6.00;;;2.20;;
13075;SDS011;6604;52.484;13.330;2023-05-02T21:07:45;5.70;;;1.97;;
13075;SDS011;6604;52.484;13.330;2023-05-02T21:10:11;5.10;;;2.27;;
13075;SDS011;6604;52.484;13.330;2023-05-02T21:12:37;3.20;;;1.87;;
13075;SDS011;6604;52.484;13.330;2023-05-02T21:15:06;4.60;;;2.10;;
13075;SDS011;6604;52.484;13.330;2023-05-02T21:17:33;4.90;;;1.90;;
13075;SDS011;6604;52.484;13.330;2023-05-02T21:19:59;2.90;;;1.87;;
13075;SDS011;6604;52.484;13.330;2023-05-02T21:22:26;9.30;;;5.27;;
13075;SDS011;6604;52.484;13.330;2023-05-02T21:24:52;5.23;;;2.93;;
13075;SDS011;6604;52.484;13.330;2023-05-02T21:27:19;2.47;;;2.00;;
13075;SDS011;6604;52.484;13.330;2023-05-02T21:29:46;4.83;;;2.00;;
